createdAt,value
2023-01-03T00:02:10.376Z,100.00
2023-01-03T00:04:37.451Z,100.00
2023-01-03T00:07:04.339Z,100.00
2023-01-03T00:09:31.175Z,100.00
2023-01-03T00:12:16.474Z,100.00
2023-01-03T00:14:43.964Z,100.00
2023-01-03T00:17:12.064Z,100.00
2023-01-03T00:19:40.541Z,100.00
2023-01-03T00:22:07.898Z,100.00
2023-01-03T00:24:34.764Z,100.00
2023-01-03T00:27:01.917Z,100.00
2023-01-03T00:29:28.733Z,100.00
2023-01-03T00:31:55.721Z,100.00
2023-01-03T00:34:22.560Z,100.00
2023-01-03T00:36:49.376Z,100.00
2023-01-03T00:39:16.175Z,100.00
2023-01-03T00:41:43.228Z,100.00
2023-01-03T00:44:11.939Z,100.00
2023-01-03T00:46:39.202Z,100.00
2023-01-03T00:49:07.349Z,100.00
2023-01-03T00:51:35.632Z,100.00
2023-01-03T00:54:03.427Z,100.00
2023-01-03T00:56:40.581Z,100.00
2023-01-03T00:59:08.147Z,100.00
2023-01-03T01:01:45.839Z,100.00
2023-01-03T01:04:15.083Z,100.00
2023-01-03T01:06:43.268Z,100.00
2023-01-03T01:09:11.882Z,100.00
2023-01-03T01:11:41.084Z,100.00
2023-01-03T01:14:19.758Z,100.00
2023-01-03T01:16:48.000Z,100.00
2023-01-03T01:19:15.573Z,100.00
2023-01-03T01:21:42.811Z,100.00
2023-01-03T01:24:12.881Z,100.00
2023-01-03T01:26:44.650Z,100.00
2023-01-03T01:29:12.342Z,100.00
2023-01-03T01:31:40.594Z,100.00
2023-01-03T01:34:07.972Z,100.00
2023-01-03T01:36:39.524Z,100.00
2023-01-03T01:39:07.844Z,100.00
2023-01-03T01:41:54.188Z,100.00
2023-01-03T01:44:40.384Z,100.00
2023-01-03T01:47:11.559Z,100.00
2023-01-03T01:49:38.401Z,100.00
2023-01-03T01:52:06.190Z,100.00
2023-01-03T01:54:33.836Z,100.00
2023-01-03T01:57:00.680Z,100.00
2023-01-03T01:59:28.364Z,100.00
2023-01-03T02:01:55.725Z,100.00
2023-01-03T02:04:30.842Z,100.00
2023-01-03T02:06:57.841Z,100.00
2023-01-03T02:09:24.692Z,100.00
2023-01-03T02:12:18.191Z,100.00
2023-01-03T02:14:54.217Z,100.00
2023-01-03T02:17:30.545Z,100.00
2023-01-03T02:20:10.080Z,100.00
2023-01-03T02:22:55.566Z,100.00
2023-01-03T02:25:38.838Z,100.00
2023-01-03T02:28:08.443Z,100.00
2023-01-03T02:30:35.265Z,100.00
2023-01-03T02:33:20.923Z,100.00
2023-01-03T02:35:59.698Z,100.00
2023-01-03T02:38:35.140Z,100.00
2023-01-03T02:41:20.537Z,100.00
2023-01-03T02:43:50.078Z,100.00
2023-01-03T02:46:23.698Z,100.00
2023-01-03T02:49:00.929Z,100.00
2023-01-03T02:51:32.547Z,100.00
2023-01-03T02:54:00.671Z,100.00
2023-01-03T02:56:30.433Z,100.00
2023-01-03T02:59:00.267Z,100.00
2023-01-03T03:01:29.152Z,100.00
2023-01-03T03:03:56.859Z,100.00
2023-01-03T03:06:30.940Z,100.00
2023-01-03T03:08:58.284Z,100.00
2023-01-03T03:11:46.528Z,100.00
2023-01-03T03:14:17.795Z,100.00
2023-01-03T03:16:47.805Z,100.00
2023-01-03T03:19:39.740Z,100.00
2023-01-03T03:22:45.741Z,100.00
2023-01-03T03:25:25.343Z,100.00
2023-01-03T03:28:14.738Z,100.00
2023-01-03T03:30:43.087Z,100.00
2023-01-03T03:33:12.648Z,100.00
2023-01-03T03:35:44.231Z,100.00
2023-01-03T03:38:13.358Z,100.00
2023-01-03T03:41:04.150Z,100.00
2023-01-03T03:43:52.397Z,100.00
2023-01-03T03:46:23.086Z,100.00
2023-01-03T03:49:27.042Z,100.00
2023-01-03T03:51:56.155Z,100.00
2023-01-03T03:54:23.951Z,100.00
2023-01-03T03:56:54.623Z,100.00
2023-01-03T03:59:23.825Z,100.00
2023-01-03T04:01:51.176Z,100.00
2023-01-03T04:04:24.578Z,100.00
2023-01-03T04:06:52.247Z,100.00
2023-01-03T04:09:19.506Z,100.00
2023-01-03T04:11:46.445Z,100.00
2023-01-03T04:14:13.282Z,100.00
2023-01-03T04:16:41.174Z,100.00
2023-01-03T04:19:08.459Z,100.00
2023-01-03T04:21:36.595Z,100.00
2023-01-03T04:24:06.822Z,100.00
2023-01-03T04:26:33.629Z,100.00
2023-01-03T04:29:00.411Z,100.00
2023-01-03T04:31:27.519Z,100.00
2023-01-03T04:33:54.397Z,100.00
2023-01-03T04:36:21.360Z,100.00
2023-01-03T04:38:48.194Z,100.00
2023-01-03T04:41:15.034Z,100.00
2023-01-03T04:44:00.316Z,100.00
2023-01-03T04:46:27.964Z,100.00
2023-01-03T04:48:54.862Z,100.00
2023-01-03T04:51:21.748Z,100.00
2023-01-03T04:53:48.585Z,100.00
2023-01-03T04:56:15.526Z,100.00
2023-01-03T04:58:42.975Z,100.00
2023-01-03T05:01:10.713Z,100.00
2023-01-03T05:03:38.095Z,100.00
2023-01-03T05:06:07.025Z,100.00
2023-01-03T05:08:35.231Z,100.00
2023-01-03T05:11:02.331Z,100.00
2023-01-03T05:13:29.141Z,100.00
2023-01-03T05:15:55.951Z,100.00
2023-01-03T05:18:22.967Z,100.00
2023-01-03T05:21:08.590Z,100.00
2023-01-03T05:23:54.236Z,100.00
2023-01-03T05:26:21.707Z,100.00
2023-01-03T05:28:50.753Z,100.00
2023-01-03T05:31:17.781Z,100.00
2023-01-03T05:33:44.766Z,100.00
2023-01-03T05:36:11.651Z,100.00
2023-01-03T05:38:38.548Z,100.00
2023-01-03T05:41:05.872Z,100.00
2023-01-03T05:43:32.933Z,100.00
2023-01-03T05:46:00.097Z,100.00
2023-01-03T05:48:27.226Z,100.00
2023-01-03T05:50:55.900Z,100.00
2023-01-03T05:53:22.748Z,100.00
2023-01-03T05:55:49.589Z,100.00
2023-01-03T05:58:16.394Z,100.00
2023-01-03T06:00:43.447Z,100.00
2023-01-03T06:03:10.391Z,100.00
2023-01-03T06:05:37.269Z,100.00
2023-01-03T06:08:04.155Z,100.00
2023-01-03T06:10:30.981Z,100.00
2023-01-03T06:12:58.100Z,100.00
2023-01-03T06:15:24.998Z,100.00
2023-01-03T06:17:54.791Z,100.00
2023-01-03T06:20:21.716Z,100.00
2023-01-03T06:22:48.700Z,100.00
2023-01-03T06:25:15.574Z,100.00
2023-01-03T06:27:42.409Z,100.00
2023-01-03T06:30:09.710Z,100.00
2023-01-03T06:32:36.715Z,100.00
2023-01-03T06:35:03.846Z,100.00
2023-01-03T06:37:30.688Z,100.00
2023-01-03T06:39:57.501Z,100.00
2023-01-03T06:42:43.300Z,100.00
2023-01-03T06:45:29.883Z,100.00
2023-01-03T06:48:15.484Z,100.00
2023-01-03T06:51:01.473Z,100.00
2023-01-03T06:53:32.010Z,100.00
2023-01-03T06:55:59.308Z,100.00
2023-01-03T06:58:26.247Z,100.00
2023-01-03T07:00:53.386Z,100.00
2023-01-03T07:03:20.593Z,100.00
2023-01-03T07:05:47.510Z,100.00
2023-01-03T07:08:14.330Z,100.00
2023-01-03T07:10:41.229Z,100.00
2023-01-03T07:13:26.985Z,100.00
2023-01-03T07:15:53.951Z,100.00
2023-01-03T07:18:20.977Z,100.00
2023-01-03T07:20:47.812Z,100.00
2023-01-03T07:23:14.795Z,100.00
2023-01-03T07:25:41.789Z,100.00
2023-01-03T07:28:12.384Z,100.00
2023-01-03T07:30:39.877Z,100.00
2023-01-03T07:33:07.563Z,100.00
2023-01-03T07:35:35.441Z,100.00
2023-01-03T07:38:05.021Z,100.00
2023-01-03T07:40:32.196Z,100.00
2023-01-03T07:43:17.891Z,100.00
2023-01-03T07:45:45.454Z,100.00
2023-01-03T07:48:12.562Z,100.00
2023-01-03T07:50:39.640Z,100.00
2023-01-03T07:53:07.823Z,100.00
2023-01-03T07:55:35.770Z,100.00
2023-01-03T07:58:02.723Z,100.00
2023-01-03T08:00:29.538Z,100.00
2023-01-03T08:02:56.679Z,100.00
2023-01-03T08:05:24.117Z,100.00
2023-01-03T08:07:51.756Z,100.00
2023-01-03T08:10:37.786Z,100.00
2023-01-03T08:13:17.424Z,100.00
2023-01-03T08:15:45.663Z,100.00
2023-01-03T08:18:12.632Z,100.00
2023-01-03T08:20:39.721Z,100.00
2023-01-03T08:23:06.612Z,100.00
2023-01-03T08:25:33.466Z,100.00
2023-01-03T08:28:00.957Z,100.00
2023-01-03T08:30:29.793Z,100.00
2023-01-03T08:32:59.112Z,100.00
2023-01-03T08:35:28.334Z,100.00
2023-01-03T08:37:55.357Z,100.00
2023-01-03T08:40:22.265Z,100.00
2023-01-03T08:42:49.203Z,100.00
2023-01-03T08:45:17.622Z,100.00
2023-01-03T08:47:45.537Z,100.00
2023-01-03T08:50:12.476Z,100.00
2023-01-03T08:52:42.446Z,100.00
2023-01-03T08:55:09.603Z,100.00
2023-01-03T08:57:36.756Z,100.00
2023-01-03T09:00:05.603Z,100.00
2023-01-03T09:02:36.558Z,100.00
2023-01-03T09:05:03.918Z,100.00
2023-01-03T09:07:30.728Z,100.00
2023-01-03T09:09:57.551Z,100.00
2023-01-03T09:12:24.359Z,100.00
2023-01-03T09:14:51.158Z,100.00
2023-01-03T09:17:18.066Z,100.00
2023-01-03T09:19:45.117Z,100.00
2023-01-03T09:22:11.917Z,100.00
2023-01-03T09:24:38.819Z,100.00
2023-01-03T09:27:05.652Z,100.00
2023-01-03T09:29:32.458Z,100.00
2023-01-03T09:32:03.137Z,100.00
2023-01-03T09:34:30.119Z,100.00
2023-01-03T09:36:57.099Z,100.00
2023-01-03T09:39:23.908Z,100.00
2023-01-03T09:42:10.743Z,100.00
2023-01-03T09:44:38.609Z,100.00
2023-01-03T09:47:05.627Z,100.00
2023-01-03T09:49:34.305Z,100.00
2023-01-03T09:52:19.884Z,100.00
2023-01-03T09:55:05.517Z,100.00
2023-01-03T09:57:53.512Z,100.00
2023-01-03T10:00:48.283Z,100.00
2023-01-03T10:03:51.159Z,100.00
2023-01-03T10:06:24.954Z,100.00
2023-01-03T10:09:05.715Z,100.00
2023-01-03T10:12:08.008Z,100.00
2023-01-03T10:14:45.480Z,100.00
2023-01-03T10:17:12.365Z,100.00
2023-01-03T10:19:41.952Z,100.00
2023-01-03T10:22:10.483Z,99.92
2023-01-03T10:24:47.585Z,100.00
2023-01-03T10:27:22.221Z,100.00
2023-01-03T10:29:51.911Z,100.00
2023-01-03T10:32:26.703Z,100.00
2023-01-03T10:35:12.320Z,100.00
2023-01-03T10:37:42.300Z,100.00
2023-01-03T10:40:09.719Z,100.00
2023-01-03T10:42:36.597Z,100.00
2023-01-03T10:45:10.116Z,99.52
2023-01-03T10:47:36.971Z,98.87
2023-01-03T10:50:05.212Z,99.14
2023-01-03T10:52:38.277Z,100.00
2023-01-03T10:55:31.510Z,97.47
2023-01-03T10:57:59.843Z,100.00
2023-01-03T11:00:37.184Z,100.00
2023-01-03T11:03:11.178Z,98.88
2023-01-03T11:05:38.994Z,96.31
2023-01-03T11:08:13.380Z,98.29
2023-01-03T11:10:49.228Z,97.59
2023-01-03T11:13:21.446Z,97.70
2023-01-03T11:15:52.966Z,97.96
2023-01-03T11:18:22.813Z,97.72
2023-01-03T11:20:49.768Z,97.84
2023-01-03T11:23:19.726Z,97.23
2023-01-03T11:26:02.654Z,96.94
2023-01-03T11:28:48.159Z,95.16
2023-01-03T11:31:20.967Z,93.99
2023-01-03T11:33:57.189Z,97.49
2023-01-03T11:36:34.139Z,95.85
2023-01-03T11:39:12.775Z,95.56
2023-01-03T11:41:41.726Z,94.00
2023-01-03T11:44:08.560Z,94.71
2023-01-03T11:46:42.883Z,96.60
2023-01-03T11:49:27.618Z,96.83
2023-01-03T11:52:09.770Z,96.30
2023-01-03T11:54:36.591Z,94.58
2023-01-03T11:57:09.900Z,96.42
2023-01-03T11:59:37.017Z,95.58
2023-01-03T12:02:22.620Z,95.72
2023-01-03T12:05:06.192Z,95.39
2023-01-03T12:07:47.722Z,92.67
2023-01-03T12:10:29.891Z,95.10
2023-01-03T12:13:29.137Z,94.80
2023-01-03T12:15:56.646Z,95.83
2023-01-03T12:18:29.779Z,94.09
2023-01-03T12:20:59.341Z,96.52
2023-01-03T12:23:29.168Z,94.10
2023-01-03T12:26:02.387Z,94.50
2023-01-03T12:28:32.872Z,94.42
2023-01-03T12:31:09.607Z,95.88
2023-01-03T12:33:46.431Z,94.47
2023-01-03T12:36:25.255Z,92.09
2023-01-03T12:38:59.629Z,92.21
2023-01-03T12:41:26.434Z,93.07
2023-01-03T12:44:22.540Z,94.27
2023-01-03T12:46:51.222Z,92.71
2023-01-03T12:49:23.337Z,92.63
2023-01-03T12:51:50.162Z,91.77
2023-01-03T12:54:25.224Z,92.54
2023-01-03T12:56:52.079Z,92.35
2023-01-03T12:59:44.671Z,92.61
2023-01-03T13:02:44.096Z,93.39
2023-01-03T13:05:16.748Z,89.66
2023-01-03T13:07:48.639Z,90.22
2023-01-03T13:10:17.650Z,90.10
2023-01-03T13:12:46.987Z,91.64
2023-01-03T13:15:23.051Z,90.94
2023-01-03T13:17:50.024Z,92.61
2023-01-03T13:20:28.071Z,90.77
2023-01-03T13:22:58.784Z,91.95
2023-01-03T13:25:34.512Z,92.19
2023-01-03T13:28:19.378Z,94.26
2023-01-03T13:30:46.637Z,91.07
2023-01-03T13:33:16.465Z,91.07
2023-01-03T13:35:46.257Z,90.38
2023-01-03T13:38:31.661Z,90.97
2023-01-03T13:43:49.921Z,89.38
2023-01-03T13:46:25.907Z,90.39
2023-01-03T13:48:55.203Z,89.47
2023-01-03T13:51:21.994Z,89.89
2023-01-03T13:53:53.373Z,89.89
2023-01-03T13:56:22.685Z,90.98
2023-01-03T13:58:51.468Z,93.55
2023-01-03T14:01:26.154Z,93.25
2023-01-03T14:04:12.818Z,90.66
2023-01-03T14:06:46.135Z,92.56
2023-01-03T14:09:24.367Z,93.40
2023-01-03T14:12:10.200Z,91.98
2023-01-03T14:14:39.400Z,92.17
2023-01-03T14:17:14.836Z,93.26
2023-01-03T14:19:47.954Z,92.97
2023-01-03T14:22:33.228Z,94.26
2023-01-03T14:25:00.226Z,94.04
2023-01-03T14:27:37.785Z,94.72
2023-01-03T14:30:19.030Z,96.06
2023-01-03T14:32:46.022Z,96.37
2023-01-03T14:35:32.525Z,95.29
2023-01-03T14:38:04.710Z,96.59
2023-01-03T14:40:33.462Z,96.47
2023-01-03T14:43:03.391Z,96.33
2023-01-03T14:45:30.244Z,96.60
2023-01-03T14:47:57.188Z,98.12
2023-01-03T14:50:28.373Z,96.16
2023-01-03T14:52:56.715Z,96.00
2023-01-03T14:55:27.227Z,96.81
2023-01-03T14:57:54.608Z,98.49
2023-01-03T15:00:31.856Z,98.77
2023-01-03T15:02:59.985Z,97.33
2023-01-03T15:05:29.531Z,99.96
2023-01-03T15:08:10.141Z,99.90
2023-01-03T15:10:43.409Z,98.63
2023-01-03T15:13:22.147Z,99.11
2023-01-03T15:15:53.536Z,99.06
2023-01-03T15:18:21.621Z,100.00
2023-01-03T15:20:50.603Z,100.00
2023-01-03T15:23:25.797Z,100.00
2023-01-03T15:25:53.108Z,100.00
2023-01-03T15:28:24.092Z,100.00
2023-01-03T15:30:51.560Z,99.44
2023-01-03T15:33:21.089Z,100.00
2023-01-03T15:35:50.369Z,100.00
2023-01-03T15:38:20.256Z,100.00
2023-01-03T15:40:48.929Z,100.00
2023-01-03T15:43:21.780Z,100.00
2023-01-03T15:46:03.272Z,100.00
2023-01-03T15:48:31.624Z,100.00
2023-01-03T15:50:59.521Z,100.00
2023-01-03T15:53:47.677Z,100.00
2023-01-03T15:56:19.267Z,100.00
2023-01-03T15:58:50.375Z,100.00
2023-01-03T16:01:18.242Z,100.00
2023-01-03T16:03:46.364Z,100.00
2023-01-03T16:06:13.337Z,100.00
2023-01-03T16:08:40.603Z,100.00
2023-01-03T16:11:15.624Z,100.00
2023-01-03T16:13:49.179Z,100.00
2023-01-03T16:16:19.251Z,100.00
2023-01-03T16:18:46.335Z,100.00
2023-01-03T16:21:13.523Z,100.00
2023-01-03T16:23:40.829Z,100.00
2023-01-03T16:26:08.108Z,100.00
2023-01-03T16:28:35.367Z,100.00
2023-01-03T16:31:04.153Z,100.00
2023-01-03T16:33:35.039Z,100.00
2023-01-03T16:36:02.373Z,100.00
2023-01-03T16:38:30.614Z,100.00
2023-01-03T16:40:57.634Z,100.00
2023-01-03T16:43:25.653Z,100.00
2023-01-03T16:45:54.311Z,100.00
2023-01-03T16:48:23.184Z,100.00
2023-01-03T16:50:51.940Z,100.00
2023-01-03T16:53:24.556Z,100.00
2023-01-03T16:55:54.565Z,100.00
2023-01-03T16:58:23.827Z,100.00
2023-01-03T17:00:51.126Z,100.00
2023-01-03T17:03:18.323Z,100.00
2023-01-03T17:05:45.811Z,100.00
2023-01-03T17:08:18.232Z,100.00
2023-01-03T17:10:46.805Z,100.00
2023-01-03T17:13:26.218Z,100.00
2023-01-03T17:15:53.803Z,100.00
2023-01-03T17:18:21.967Z,100.00
2023-01-03T17:21:00.119Z,100.00
2023-01-03T17:23:28.236Z,100.00
2023-01-03T17:25:55.561Z,100.00
2023-01-03T17:28:22.528Z,100.00
2023-01-03T17:30:51.115Z,100.00
2023-01-03T17:33:18.126Z,100.00
2023-01-03T17:35:46.034Z,100.00
2023-01-03T17:38:25.761Z,100.00
2023-01-03T17:40:55.192Z,100.00
2023-01-03T17:43:23.808Z,100.00
2023-01-03T17:46:13.185Z,100.00
2023-01-03T17:49:01.802Z,100.00
2023-01-03T17:51:28.659Z,100.00
2023-01-03T17:53:55.734Z,100.00
2023-01-03T17:56:22.604Z,100.00
2023-01-03T17:58:56.023Z,100.00
2023-01-03T18:01:23.515Z,100.00
2023-01-03T18:03:50.704Z,100.00
2023-01-03T18:06:19.977Z,100.00
2023-01-03T18:08:47.684Z,100.00
2023-01-03T18:11:16.168Z,100.00
2023-01-03T18:13:43.677Z,100.00
2023-01-03T18:16:18.724Z,100.00
2023-01-03T18:18:45.806Z,100.00
2023-01-03T18:21:17.638Z,100.00
2023-01-03T18:23:45.113Z,100.00
2023-01-03T18:26:14.478Z,100.00
2023-01-03T18:28:41.920Z,100.00
2023-01-03T18:31:16.849Z,100.00
2023-01-03T18:33:43.828Z,100.00
2023-01-03T18:36:17.051Z,100.00
2023-01-03T18:38:43.915Z,100.00
2023-01-03T18:41:16.895Z,100.00
2023-01-03T18:43:43.752Z,100.00
2023-01-03T18:46:17.668Z,100.00
2023-01-03T18:48:44.538Z,100.00
2023-01-03T18:51:15.641Z,100.00
2023-01-03T18:53:47.467Z,100.00
2023-01-03T18:56:37.403Z,100.00
2023-01-03T18:59:06.859Z,100.00
2023-01-03T19:01:34.020Z,100.00
2023-01-03T19:04:01.116Z,100.00
2023-01-03T19:06:33.607Z,100.00
2023-01-03T19:09:02.587Z,100.00
2023-01-03T19:11:31.789Z,100.00
2023-01-03T19:14:00.998Z,100.00
2023-01-03T19:16:32.117Z,100.00
2023-01-03T19:18:59.547Z,100.00
2023-01-03T19:21:30.112Z,100.00
2023-01-03T19:24:19.697Z,100.00
2023-01-03T19:27:04.086Z,100.00
2023-01-03T19:29:36.931Z,100.00
2023-01-03T19:32:11.774Z,100.00
2023-01-03T19:34:38.603Z,100.00
2023-01-03T19:37:05.467Z,100.00
2023-01-03T19:39:37.454Z,100.00
2023-01-03T19:42:24.333Z,100.00
2023-01-03T19:44:52.847Z,100.00
2023-01-03T19:47:22.667Z,100.00
2023-01-03T19:49:49.526Z,100.00
2023-01-03T19:52:16.866Z,100.00
2023-01-03T19:54:44.320Z,100.00
2023-01-03T19:57:21.423Z,100.00
2023-01-03T19:59:53.224Z,100.00
2023-01-03T20:02:32.261Z,100.00
2023-01-03T20:04:59.611Z,100.00
2023-01-03T20:07:26.563Z,100.00
2023-01-03T20:09:53.516Z,100.00
2023-01-03T20:12:23.770Z,100.00
2023-01-03T20:14:51.382Z,100.00
2023-01-03T20:17:22.346Z,100.00
2023-01-03T20:19:49.808Z,100.00
2023-01-03T20:22:44.953Z,100.00
2023-01-03T20:25:04.693Z,100.00
2023-01-03T20:27:31.528Z,100.00
2023-01-03T20:29:58.377Z,100.00
2023-01-03T20:32:25.268Z,100.00
2023-01-03T20:34:52.152Z,100.00
2023-01-03T20:37:25.889Z,100.00
2023-01-03T20:39:53.116Z,100.00
2023-01-03T20:42:24.660Z,100.00
2023-01-03T20:44:51.607Z,100.00
2023-01-03T20:47:21.247Z,100.00
2023-01-03T20:49:48.425Z,100.00
2023-01-03T20:52:16.283Z,100.00
2023-01-03T20:54:43.634Z,100.00
2023-01-03T20:57:14.601Z,100.00
2023-01-03T20:59:41.820Z,100.00
2023-01-03T21:02:12.311Z,100.00
2023-01-03T21:04:39.552Z,100.00
2023-01-03T21:07:11.540Z,100.00
2023-01-03T21:09:38.870Z,100.00
2023-01-03T21:12:05.762Z,100.00
2023-01-03T21:14:32.640Z,100.00
2023-01-03T21:16:59.565Z,100.00
2023-01-03T21:19:26.539Z,100.00
2023-01-03T21:21:54.195Z,100.00
2023-01-03T21:24:22.673Z,100.00
2023-01-03T21:26:49.630Z,100.00
2023-01-03T21:29:16.538Z,100.00
2023-01-03T21:31:43.550Z,100.00
2023-01-03T21:34:16.377Z,100.00
2023-01-03T21:36:43.349Z,100.00
2023-01-03T21:39:10.263Z,100.00
2023-01-03T21:41:57.163Z,100.00
2023-01-03T21:44:24.082Z,100.00
2023-01-03T21:46:50.892Z,100.00
2023-01-03T21:49:17.825Z,100.00
2023-01-03T21:51:44.732Z,100.00
2023-01-03T21:54:11.548Z,100.00
2023-01-03T21:56:45.179Z,100.00
2023-01-03T21:59:16.001Z,100.00
2023-01-03T22:02:02.782Z,100.00
2023-01-03T22:04:30.182Z,100.00
2023-01-03T22:07:00.409Z,100.00
2023-01-03T22:09:46.410Z,100.00
2023-01-03T22:12:15.551Z,100.00
2023-01-03T22:14:43.412Z,100.00
2023-01-03T22:17:10.224Z,100.00
2023-01-03T22:19:37.094Z,100.00
2023-01-03T22:22:04.850Z,100.00
2023-01-03T22:24:31.773Z,100.00
2023-01-03T22:26:58.632Z,100.00
2023-01-03T22:29:25.684Z,100.00
2023-01-03T22:31:52.634Z,100.00
2023-01-03T22:34:19.509Z,100.00
2023-01-03T22:36:46.383Z,100.00
2023-01-03T22:39:13.272Z,100.00
2023-01-03T22:41:40.060Z,100.00
2023-01-03T22:44:06.953Z,100.00
2023-01-03T22:46:33.805Z,100.00
2023-01-03T22:49:00.681Z,100.00
2023-01-03T22:51:27.542Z,100.00
2023-01-03T22:53:54.402Z,100.00
2023-01-03T22:56:21.233Z,100.00
2023-01-03T22:58:48.070Z,100.00
2023-01-03T23:01:16.211Z,100.00
2023-01-03T23:03:47.160Z,100.00
2023-01-03T23:06:15.610Z,100.00
2023-01-03T23:08:42.555Z,100.00
2023-01-03T23:11:34.219Z,100.00
2023-01-03T23:14:03.206Z,100.00
2023-01-03T23:16:31.095Z,100.00
2023-01-03T23:18:58.428Z,100.00
2023-01-03T23:21:25.236Z,100.00
2023-01-03T23:23:52.096Z,100.00
2023-01-03T23:26:18.923Z,100.00
2023-01-03T23:28:45.731Z,100.00
2023-01-03T23:31:12.572Z,100.00
2023-01-03T23:33:39.430Z,100.00
2023-01-03T23:36:07.418Z,100.00
2023-01-03T23:38:34.255Z,100.00
2023-01-03T23:41:05.692Z,100.00
2023-01-03T23:43:33.070Z,100.00
2023-01-03T23:45:59.909Z,100.00
2023-01-03T23:48:26.880Z,100.00
2023-01-03T23:50:53.832Z,100.00
2023-01-03T23:53:21.532Z,100.00
2023-01-03T23:55:48.646Z,100.00
2023-01-03T23:58:15.472Z,100.00
